Pagrindinis puslapis
METAR-TAF:

METAR-TAF

Oro uostai :

Rio Galjegosas, Argentina

platuma: 51-37S, ilguma: 069-17W, Aukštis: 20 m

Dabartinis oras

Ataskaita buvo paskelbta 35 minutes, ne 16:00 UTC
Vėjas 21 kt iš Pietų/Pietvakarių
Temperatūra 8°C
Drėgmė 53%
Slėgis 1006 hPa
Matomumas 10 km arba daugiau
Išsisklaidę debesys ne aukštis 1500 ft

METAR: SAWG 151600Z 20021KT 9999 SCT015 08/M01 Q1006

Laikas: 13:35 (16:35 UTC)

Prognozė

Ataskaita buvo paskelbta 5 valandos ir 35 minutes, ne 11:00 UTC
Prognozė galioja nuo 15 metu 12 UTC su 16 metu 12 UTC
Vėjas 20 kt iš Pietvakarių
Matomumas 10 km arba daugiau
Su prošvaistėmis ne aukštis 2500 ft
Laikinai
nuo 15 metu 12 UTC su 15 metu 18 UTC
Vėjas 20 kt iš Pietvakarių su gūsio iki 30 kt
Tapsmas
nuo 16 metu 02 UTC su 16 metu 04 UTC
Vėjas 35 kt iš Pietvakarių su gūsio iki 40 kt
Su prošvaistėmis ne aukštis 2000 ft
Su prošvaistėmis ne aukštis 3000 ft

TAF: SAWG 151100Z 1512/1612 23020KT 9999 BKN025 TX06/1519Z TN00/1610Z TEMPO 1512/1518 23020G30KT BECMG 1602/1604 23035G40KT BKN020 BKN030

Orai ataskaitas ir orų prognozės (METAR, TAF).

turimą stotys yra geltonos ir raudonos taškus žemėlapyje.

Perkelti pele per norėdami pamatyti stoties vardą.

Tada spustelėkite, norėdami matyti oro stebėjimo ir prognozės.

Norėdami pakeisti žemėlapį: spustelėkite ant žalios mygtukų su juodo kryžiaus žemyn,; žalią mygtuką su brūkšneliu, jei norite nutolinti; arba žalių rodyklių gretimoms žemėlapius.


METAR-TAF: